createdAt,value
2018-03-04T00:01:28.414Z,91.10
2018-03-04T00:03:55.954Z,91.00
2018-03-04T00:06:23.491Z,91.20
2018-03-04T00:08:52.054Z,91.00
2018-03-04T00:11:20.386Z,91.10
2018-03-04T00:13:47.934Z,91.10
2018-03-04T00:16:16.284Z,91.00
2018-03-04T00:18:43.830Z,91.00
2018-03-04T00:21:11.360Z,90.90
2018-03-04T00:23:38.934Z,90.90
2018-03-04T00:26:07.240Z,90.90
2018-03-04T00:28:34.770Z,90.90
2018-03-04T00:31:02.367Z,91.00
2018-03-04T00:33:30.688Z,90.90
2018-03-04T00:35:58.227Z,90.90
2018-03-04T00:38:26.644Z,90.70
2018-03-04T00:40:54.230Z,90.70
2018-03-04T00:43:21.889Z,90.80
2018-03-04T00:45:49.462Z,90.90
2018-03-04T00:48:17.138Z,90.70
2018-03-04T00:50:44.674Z,90.70
2018-03-04T00:53:13.023Z,90.80
2018-03-04T00:55:40.574Z,90.80
2018-03-04T00:58:08.114Z,90.70
2018-03-04T01:00:36.484Z,90.70
2018-03-04T01:03:04.917Z,90.90
2018-03-04T01:05:32.457Z,90.60
2018-03-04T01:08:00.895Z,90.90
2018-03-04T01:10:28.426Z,90.90
2018-03-04T01:12:56.747Z,90.70
2018-03-04T01:15:24.339Z,90.70
2018-03-04T01:17:51.876Z,90.80
2018-03-04T01:20:19.405Z,90.90
2018-03-04T01:22:47.025Z,91.10
2018-03-04T01:25:14.596Z,91.20
2018-03-04T01:27:42.270Z,91.10
2018-03-04T01:30:09.971Z,91.20
2018-03-04T01:32:37.515Z,91.40
2018-03-04T01:35:05.108Z,91.30
2018-03-04T01:37:32.760Z,91.40
2018-03-04T01:40:00.331Z,91.30
2018-03-04T01:42:27.902Z,91.30
2018-03-04T01:44:55.482Z,91.10
2018-03-04T01:47:23.031Z,91.30
2018-03-04T01:49:51.440Z,91.50
2018-03-04T01:52:19.054Z,91.40
2018-03-04T01:54:46.586Z,91.50
2018-03-04T01:57:14.253Z,91.60
2018-03-04T01:59:41.839Z,91.50
2018-03-04T02:02:09.382Z,91.70
2018-03-04T02:04:36.913Z,91.50
2018-03-04T02:07:04.493Z,91.50
2018-03-04T02:09:32.126Z,91.60
2018-03-04T02:11:59.686Z,92.10
2018-03-04T02:14:27.272Z,92.20
2018-03-04T02:16:54.823Z,92.20
2018-03-04T02:19:22.359Z,92.30
2018-03-04T02:21:50.870Z,92.30
2018-03-04T02:24:18.466Z,92.30
2018-03-04T02:26:46.001Z,92.10
2018-03-04T02:29:14.345Z,92.40
2018-03-04T02:31:41.886Z,92.30
2018-03-04T02:34:09.462Z,92.20
2018-03-04T02:36:37.100Z,92.40
2018-03-04T02:39:04.599Z,92.60
2018-03-04T02:41:32.174Z,92.90
2018-03-04T02:43:59.765Z,92.70
2018-03-04T02:46:27.303Z,92.80
2018-03-04T02:48:54.850Z,92.60
2018-03-04T02:51:22.564Z,92.60
2018-03-04T02:53:50.099Z,92.70
2018-03-04T02:56:17.650Z,92.80
2018-03-04T02:58:45.287Z,92.70
2018-03-04T03:01:12.863Z,92.70
2018-03-04T03:03:40.406Z,92.70
2018-03-04T03:06:08.198Z,92.60
2018-03-04T03:08:35.781Z,92.60
2018-03-04T03:11:03.314Z,92.50
2018-03-04T03:13:31.659Z,92.70
2018-03-04T03:15:59.210Z,92.60
2018-03-04T03:18:26.872Z,92.40
2018-03-04T03:20:54.455Z,92.50
2018-03-04T03:23:22.015Z,92.70
2018-03-04T03:25:49.587Z,92.80
2018-03-04T03:28:17.289Z,92.70
2018-03-04T03:30:44.827Z,92.60
2018-03-04T03:33:12.406Z,92.50
2018-03-04T03:35:40.086Z,92.60
2018-03-04T03:38:07.613Z,92.60
2018-03-04T03:40:35.919Z,92.60
2018-03-04T03:43:03.630Z,92.60
2018-03-04T03:45:31.158Z,92.70
2018-03-04T03:47:59.468Z,92.80
2018-03-04T03:50:27.050Z,92.80
2018-03-04T03:52:54.581Z,92.90
2018-03-04T03:55:22.900Z,92.60
2018-03-04T03:57:50.570Z,92.50
2018-03-04T04:00:18.111Z,92.60
2018-03-04T04:02:46.435Z,92.50
2018-03-04T04:05:14.122Z,92.50
2018-03-04T04:07:41.650Z,92.80
2018-03-04T04:10:09.948Z,92.30
2018-03-04T04:12:37.538Z,92.20
2018-03-04T04:15:05.213Z,92.40
2018-03-04T04:17:32.886Z,92.60
2018-03-04T04:20:00.462Z,92.30
2018-03-04T04:22:28.011Z,92.20
2018-03-04T04:24:56.428Z,92.50
2018-03-04T04:27:23.998Z,92.50
2018-03-04T04:29:51.534Z,92.10
2018-03-04T04:32:19.850Z,92.50
2018-03-04T04:34:47.440Z,92.40
2018-03-04T04:37:14.966Z,92.40
2018-03-04T04:39:43.311Z,92.20
2018-03-04T04:42:10.879Z,92.10
2018-03-04T04:44:38.403Z,92.20
2018-03-04T04:47:06.714Z,92.10
2018-03-04T04:49:34.389Z,92.10
2018-03-04T04:52:01.922Z,92.10
2018-03-04T04:54:30.244Z,92.10
2018-03-04T04:56:57.919Z,92.10
2018-03-04T04:59:25.454Z,92.20
2018-03-04T05:01:53.778Z,92.60
2018-03-04T05:04:21.451Z,92.60
2018-03-04T05:06:48.986Z,92.50
2018-03-04T05:09:16.600Z,92.30
2018-03-04T05:11:44.374Z,92.60
2018-03-04T05:14:12.047Z,92.50
2018-03-04T05:16:39.620Z,93.00
2018-03-04T05:19:07.206Z,93.10
2018-03-04T05:21:34.761Z,93.30
2018-03-04T05:24:02.334Z,93.30
2018-03-04T05:26:30.004Z,93.20
2018-03-04T05:28:57.580Z,93.30
2018-03-04T05:31:25.122Z,93.70
2018-03-04T05:33:53.482Z,93.60
2018-03-04T05:36:21.026Z,93.60
2018-03-04T05:38:48.578Z,93.70
2018-03-04T05:41:16.254Z,93.60
2018-03-04T05:43:43.838Z,93.80
2018-03-04T05:46:11.370Z,93.90
2018-03-04T05:48:39.887Z,94.10
2018-03-04T05:51:07.445Z,94.30
2018-03-04T05:53:34.987Z,94.40
2018-03-04T05:56:02.714Z,94.50
2018-03-04T05:58:31.070Z,94.70
2018-03-04T06:00:59.373Z,95.00
2018-03-04T06:03:26.970Z,94.90
2018-03-04T06:05:54.529Z,95.00
2018-03-04T06:08:22.058Z,95.00
2018-03-04T06:10:49.787Z,95.10
2018-03-04T06:13:17.318Z,95.10
2018-03-04T06:15:45.623Z,95.20
2018-03-04T06:18:13.205Z,95.10
2018-03-04T06:20:40.740Z,95.10
2018-03-04T06:23:09.034Z,95.00
2018-03-04T06:25:37.386Z,95.30
2018-03-04T06:28:05.024Z,95.30
2018-03-04T06:30:32.594Z,95.10
2018-03-04T06:33:00.183Z,94.70
2018-03-04T06:35:27.717Z,94.80
2018-03-04T06:37:56.026Z,94.90
2018-03-04T06:40:23.703Z,94.90
2018-03-04T06:42:51.375Z,94.90
2018-03-04T06:45:19.049Z,94.90
2018-03-04T06:47:46.739Z,95.20
2018-03-04T06:50:14.292Z,94.70
2018-03-04T06:52:41.842Z,94.90
2018-03-04T06:55:10.255Z,94.80
2018-03-04T06:57:37.805Z,94.80
2018-03-04T07:00:06.118Z,94.60
2018-03-04T07:02:33.889Z,94.60
2018-03-04T07:05:01.418Z,94.70
2018-03-04T07:07:28.954Z,95.50
2018-03-04T07:09:56.718Z,94.60
2018-03-04T07:12:24.277Z,94.40
2018-03-04T07:14:51.809Z,94.30
2018-03-04T07:17:19.434Z,94.00
2018-03-04T07:19:46.982Z,94.40
2018-03-04T07:22:14.519Z,94.60
2018-03-04T07:24:42.098Z,97.70
2018-03-04T07:27:11.140Z,98.60
2018-03-04T07:29:38.718Z,98.60
2018-03-04T07:32:06.313Z,93.40
2018-03-04T07:34:33.956Z,93.20
2018-03-04T07:37:01.491Z,93.50
2018-03-04T07:39:29.086Z,93.30
2018-03-04T07:41:57.415Z,93.30
2018-03-04T07:44:24.945Z,93.30
2018-03-04T07:46:53.354Z,93.70
2018-03-04T07:49:20.889Z,93.70
2018-03-04T07:51:49.220Z,94.10
2018-03-04T07:54:16.983Z,93.70
2018-03-04T07:56:44.515Z,93.80
2018-03-04T07:59:12.167Z,94.00
2018-03-04T08:01:39.742Z,93.50
2018-03-04T08:04:07.283Z,93.40
2018-03-04T08:06:35.799Z,92.50
2018-03-04T08:09:03.450Z,92.30
2018-03-04T08:11:30.978Z,91.80
2018-03-04T08:13:59.286Z,91.60
2018-03-04T08:16:26.986Z,91.40
2018-03-04T08:18:54.523Z,91.40
2018-03-04T08:21:22.823Z,90.40
2018-03-04T08:23:50.498Z,90.30
2018-03-04T08:26:29.839Z,89.70
2018-03-04T08:28:58.190Z,89.40
2018-03-04T08:31:25.739Z,89.30
2018-03-04T08:33:53.601Z,88.70
2018-03-04T08:36:21.364Z,89.40
2018-03-04T08:38:49.353Z,88.10
2018-03-04T08:41:17.761Z,89.20
2018-03-04T08:43:45.521Z,89.20
2018-03-04T08:46:13.096Z,88.70
2018-03-04T08:48:40.766Z,88.70
2018-03-04T08:51:08.542Z,87.20
2018-03-04T08:53:36.140Z,88.50
2018-03-04T08:56:03.812Z,88.50
2018-03-04T08:58:31.470Z,89.10
2018-03-04T09:00:59.024Z,89.70
2018-03-04T09:03:26.969Z,90.00
2018-03-04T09:05:55.406Z,90.30
2018-03-04T09:08:24.284Z,90.60
2018-03-04T09:10:51.850Z,90.60
2018-03-04T09:13:20.318Z,90.60
2018-03-04T09:15:47.887Z,90.60
2018-03-04T09:18:16.332Z,90.10
2018-03-04T09:20:44.544Z,90.10
2018-03-04T09:23:12.351Z,90.00
2018-03-04T09:25:39.923Z,90.30
2018-03-04T09:28:08.618Z,90.30
2018-03-04T09:30:36.193Z,90.30
2018-03-04T09:33:04.729Z,90.80
2018-03-04T09:35:32.861Z,90.90
2018-03-04T09:38:01.190Z,91.10
2018-03-04T09:40:29.517Z,90.90
2018-03-04T09:42:57.098Z,90.80
2018-03-04T09:45:24.662Z,91.20
2018-03-04T09:47:52.190Z,91.30
2018-03-04T09:50:20.550Z,91.20
2018-03-04T09:52:48.115Z,91.20
2018-03-04T09:55:15.664Z,91.70
2018-03-04T09:57:43.317Z,90.90
2018-03-04T10:00:10.889Z,90.60
2018-03-04T10:02:38.418Z,90.60
2018-03-04T10:05:06.966Z,90.50
2018-03-04T10:07:34.522Z,90.20
2018-03-04T10:10:02.066Z,89.70
2018-03-04T10:12:30.595Z,90.00
2018-03-04T10:14:58.159Z,90.00
2018-03-04T10:17:25.755Z,88.10
2018-03-04T10:19:53.329Z,87.90
2018-03-04T10:22:20.881Z,88.70
2018-03-04T10:24:48.428Z,89.00
2018-03-04T10:27:16.936Z,88.20
2018-03-04T10:29:44.474Z,88.20
2018-03-04T10:32:14.734Z,87.30
2018-03-04T10:34:42.415Z,87.30
2018-03-04T10:37:10.403Z,86.00
2018-03-04T10:39:38.014Z,85.70
2018-03-04T10:42:05.637Z,84.50
2018-03-04T10:44:33.214Z,85.40
2018-03-04T10:47:00.784Z,84.10
2018-03-04T10:49:28.431Z,83.10
2018-03-04T10:51:57.565Z,82.40
2018-03-04T10:54:25.279Z,82.40
2018-03-04T10:56:53.126Z,82.10
2018-03-04T10:59:20.735Z,82.30
2018-03-04T11:01:51.258Z,81.70
2018-03-04T11:04:19.345Z,82.40
2018-03-04T11:06:47.194Z,83.10
2018-03-04T11:09:15.585Z,83.30
2018-03-04T11:11:43.306Z,83.20
2018-03-04T11:14:11.847Z,83.20
2018-03-04T11:16:39.403Z,84.00
2018-03-04T11:19:07.853Z,83.00
2018-03-04T11:21:35.683Z,82.90
2018-03-04T11:24:04.549Z,81.30
2018-03-04T11:26:32.236Z,80.00
2018-03-04T11:29:00.614Z,81.20
2018-03-04T11:31:29.054Z,79.80
2018-03-04T11:33:56.846Z,79.80
2018-03-04T11:36:24.570Z,79.80
2018-03-04T11:38:52.116Z,79.90
2018-03-04T11:41:20.604Z,81.10
2018-03-04T11:43:48.146Z,81.10
2018-03-04T11:46:15.835Z,81.50
2018-03-04T11:48:43.448Z,81.80
2018-03-04T11:51:11.414Z,80.70
2018-03-04T11:53:39.975Z,80.90
2018-03-04T11:56:07.789Z,80.20
2018-03-04T11:58:36.102Z,79.10
2018-03-04T12:01:04.518Z,79.30
2018-03-04T12:03:32.304Z,79.20
2018-03-04T12:06:00.000Z,79.00
2018-03-04T12:08:27.731Z,78.90
2018-03-04T12:10:55.625Z,79.00
2018-03-04T12:13:23.211Z,78.70
2018-03-04T12:15:50.767Z,78.20
2018-03-04T12:18:18.340Z,78.20
2018-03-04T12:20:45.926Z,77.10
2018-03-04T12:23:13.501Z,76.20
2018-03-04T12:25:41.471Z,74.70
2018-03-04T12:28:09.052Z,73.30
2018-03-04T12:30:37.506Z,73.20
2018-03-04T12:33:05.236Z,73.20
2018-03-04T12:35:33.078Z,71.60
2018-03-04T12:38:00.702Z,71.10
2018-03-04T12:40:28.337Z,72.30
2018-03-04T12:42:55.906Z,70.20
2018-03-04T12:45:23.594Z,69.30
2018-03-04T12:47:52.207Z,69.20
2018-03-04T12:50:20.862Z,70.70
2018-03-04T12:52:48.647Z,70.60
2018-03-04T12:55:17.150Z,70.70
2018-03-04T12:57:44.733Z,70.70
2018-03-04T13:00:12.299Z,70.80
2018-03-04T13:02:40.226Z,71.60
2018-03-04T13:05:08.014Z,71.70
2018-03-04T13:07:36.505Z,70.50
2018-03-04T13:10:04.156Z,70.50
2018-03-04T13:12:31.762Z,70.30
2018-03-04T13:15:00.507Z,70.90
2018-03-04T13:17:28.202Z,71.00
2018-03-04T13:19:55.964Z,71.10
2018-03-04T13:22:23.548Z,72.10
2018-03-04T13:24:51.310Z,72.40
2018-03-04T13:27:18.850Z,72.90
2018-03-04T13:29:46.383Z,72.30
2018-03-04T13:32:14.806Z,71.30
2018-03-04T13:34:42.360Z,71.20
2018-03-04T13:37:09.923Z,68.80
2018-03-04T13:39:37.514Z,70.50
2018-03-04T13:42:05.050Z,72.00
2018-03-04T13:44:33.374Z,72.90
2018-03-04T13:47:00.940Z,72.50
2018-03-04T13:49:28.466Z,71.90
2018-03-04T13:51:56.767Z,71.60
2018-03-04T13:54:25.125Z,72.60
2018-03-04T13:56:52.666Z,72.10
2018-03-04T13:59:20.206Z,72.70
2018-03-04T14:01:48.629Z,72.60
2018-03-04T14:04:16.172Z,72.60
2018-03-04T14:06:43.728Z,72.70
2018-03-04T14:09:11.300Z,72.70
2018-03-04T14:11:39.628Z,73.80
2018-03-04T14:14:07.153Z,73.70
2018-03-04T14:16:34.766Z,73.90
2018-03-04T14:19:02.322Z,74.60
2018-03-04T14:21:30.627Z,75.10
2018-03-04T14:23:58.226Z,75.10
2018-03-04T14:26:25.758Z,74.90
2018-03-04T14:28:54.202Z,74.70
2018-03-04T14:31:21.794Z,74.70
2018-03-04T14:33:49.566Z,74.90
2018-03-04T14:36:17.103Z,77.90
2018-03-04T14:38:44.702Z,77.40
2018-03-04T14:41:12.290Z,76.50
2018-03-04T14:43:39.823Z,76.40
2018-03-04T14:46:07.440Z,77.00
2018-03-04T14:48:34.996Z,85.90
2018-03-04T14:51:02.534Z,88.20
2018-03-04T14:53:30.205Z,78.00
2018-03-04T14:55:57.745Z,76.70
2018-03-04T14:58:25.282Z,76.40
2018-03-04T15:00:52.982Z,75.80
2018-03-04T15:03:21.417Z,75.00
2018-03-04T15:05:48.963Z,74.90
2018-03-04T15:08:16.576Z,74.60
2018-03-04T15:10:44.117Z,75.00
2018-03-04T15:13:11.645Z,75.50
2018-03-04T15:15:39.337Z,75.70
2018-03-04T15:18:07.691Z,75.80
2018-03-04T15:20:35.319Z,75.80
2018-03-04T15:23:02.897Z,75.90
2018-03-04T15:25:31.120Z,75.50
2018-03-04T15:27:58.671Z,75.20
2018-03-04T15:30:26.342Z,74.70
2018-03-04T15:32:53.871Z,74.60
2018-03-04T15:35:22.284Z,75.20
2018-03-04T15:37:49.868Z,75.20
2018-03-04T15:40:17.402Z,75.90
2018-03-04T15:42:45.708Z,76.90
2018-03-04T15:45:13.279Z,76.90
2018-03-04T15:47:40.836Z,77.00
2018-03-04T15:50:09.197Z,77.30
2018-03-04T15:52:36.930Z,77.20
2018-03-04T15:55:04.886Z,77.30
2018-03-04T15:57:33.293Z,77.50
2018-03-04T16:00:01.082Z,77.50
2018-03-04T16:02:28.623Z,77.50
2018-03-04T16:04:56.939Z,77.60
2018-03-04T16:07:24.609Z,77.60
2018-03-04T16:09:52.202Z,77.70
2018-03-04T16:12:19.930Z,78.00
2018-03-04T16:14:47.638Z,78.40
2018-03-04T16:17:15.168Z,78.20
2018-03-04T16:19:43.471Z,78.90
2018-03-04T16:22:11.046Z,78.70
2018-03-04T16:24:38.587Z,79.20
2018-03-04T16:27:07.017Z,79.80
2018-03-04T16:29:34.737Z,80.00
2018-03-04T16:32:02.348Z,79.90
2018-03-04T16:34:30.662Z,79.80
2018-03-04T16:36:58.309Z,79.80
2018-03-04T16:39:25.806Z,88.60
2018-03-04T16:41:53.334Z,85.40
2018-03-04T16:44:20.938Z,81.30
2018-03-04T16:46:48.470Z,81.10
2018-03-04T16:49:16.891Z,81.90
2018-03-04T16:51:44.571Z,81.90
2018-03-04T16:54:12.105Z,82.00
2018-03-04T16:56:39.630Z,82.20
2018-03-04T16:59:07.278Z,82.60
2018-03-04T17:01:34.901Z,82.80
2018-03-04T17:04:02.749Z,82.80
2018-03-04T17:06:30.370Z,82.80
2018-03-04T17:08:58.096Z,83.60
2018-03-04T17:11:25.683Z,82.80
2018-03-04T17:13:53.651Z,82.30
2018-03-04T17:16:22.255Z,82.30
2018-03-04T17:18:49.827Z,82.20
2018-03-04T17:21:17.481Z,82.00
2018-03-04T17:23:45.072Z,81.10
2018-03-04T17:26:12.733Z,81.00
2018-03-04T17:28:40.514Z,81.10
2018-03-04T17:31:08.178Z,81.20
2018-03-04T17:33:35.756Z,80.80
2018-03-04T17:36:03.331Z,80.80
2018-03-04T17:38:30.871Z,81.20
2018-03-04T17:40:59.224Z,80.70
2018-03-04T17:43:26.885Z,80.70
2018-03-04T17:45:54.431Z,80.00
2018-03-04T17:48:21.968Z,79.50
2018-03-04T17:50:50.305Z,80.30
2018-03-04T17:53:17.858Z,80.20
2018-03-04T17:55:45.443Z,80.40
2018-03-04T17:58:13.020Z,80.10
2018-03-04T18:00:41.015Z,80.30
2018-03-04T18:03:08.574Z,80.50
2018-03-04T18:05:36.224Z,80.80
2018-03-04T18:08:03.750Z,81.40
2018-03-04T18:10:31.289Z,80.80
2018-03-04T18:12:58.969Z,80.90
2018-03-04T18:15:26.509Z,80.70
2018-03-04T18:17:54.035Z,80.80
2018-03-04T18:20:21.759Z,81.10
2018-03-04T18:22:49.293Z,81.50
2018-03-04T18:25:17.598Z,82.20
2018-03-04T18:27:45.933Z,81.50
2018-03-04T18:30:13.482Z,81.50
2018-03-04T18:32:41.046Z,81.60
2018-03-04T18:35:08.727Z,81.20
2018-03-04T18:37:36.259Z,81.00
2018-03-04T18:42:31.023Z,81.00
2018-03-04T18:44:58.571Z,80.40
2018-03-04T18:47:26.882Z,81.10
2018-03-04T18:49:54.456Z,81.10
2018-03-04T18:52:21.983Z,81.20
2018-03-04T18:54:49.518Z,81.40
2018-03-04T18:57:17.177Z,81.80
2018-03-04T18:59:44.754Z,81.30
2018-03-04T19:02:12.289Z,81.30
2018-03-04T19:04:40.799Z,81.20
2018-03-04T19:07:08.333Z,81.20
2018-03-04T19:09:35.986Z,81.50
2018-03-04T19:12:03.649Z,81.70
2018-03-04T19:14:31.215Z,81.80
2018-03-04T19:16:58.750Z,83.90
2018-03-04T19:19:26.334Z,85.30
2018-03-04T19:21:53.877Z,85.20
2018-03-04T19:24:22.194Z,82.70
2018-03-04T19:26:49.872Z,82.70
2018-03-04T19:29:17.410Z,81.90
2018-03-04T19:31:45.708Z,87.80
2018-03-04T19:34:14.046Z,82.10
2018-03-04T19:36:41.603Z,82.00
2018-03-04T19:39:09.148Z,82.50
2018-03-04T19:41:36.750Z,80.70
2018-03-04T19:44:04.611Z,81.40
2018-03-04T19:46:32.188Z,80.70
2018-03-04T19:48:59.778Z,80.70
2018-03-04T19:51:27.329Z,80.20
2018-03-04T19:53:54.874Z,79.90
2018-03-04T19:56:23.217Z,79.80
2018-03-04T19:58:51.372Z,79.80
2018-03-04T20:01:18.943Z,80.10
2018-03-04T20:03:46.519Z,80.00
2018-03-04T20:06:14.046Z,80.00
2018-03-04T20:08:41.582Z,79.90
2018-03-04T20:11:09.308Z,79.90
2018-03-04T20:13:37.602Z,79.80
2018-03-04T20:16:05.121Z,79.80
2018-03-04T20:18:32.698Z,80.10
2018-03-04T20:21:00.342Z,80.20
2018-03-04T20:23:27.873Z,80.40
2018-03-04T20:25:56.230Z,80.80
2018-03-04T20:28:23.849Z,80.80
2018-03-04T20:30:51.378Z,80.70
2018-03-04T20:33:18.982Z,80.70
2018-03-04T20:35:46.543Z,81.00
2018-03-04T20:38:14.074Z,81.40
2018-03-04T20:40:41.655Z,81.60
2018-03-04T20:43:09.186Z,80.90
2018-03-04T20:45:37.515Z,82.30
2018-03-04T20:48:05.094Z,81.40
2018-03-04T20:50:32.654Z,81.60
2018-03-04T20:53:00.191Z,82.00
2018-03-04T20:55:28.534Z,82.40
2018-03-04T20:57:56.089Z,82.00
2018-03-04T21:00:23.618Z,81.90
2018-03-04T21:02:51.191Z,81.70
2018-03-04T21:05:19.545Z,82.10
2018-03-04T21:07:47.069Z,82.10
2018-03-04T21:10:15.998Z,82.20
2018-03-04T21:12:43.542Z,82.20
2018-03-04T21:15:11.098Z,82.50
2018-03-04T21:17:39.448Z,83.00
2018-03-04T21:20:06.999Z,82.80
2018-03-04T21:22:34.536Z,82.70
2018-03-04T21:25:02.983Z,82.80
2018-03-04T21:27:30.527Z,82.80
2018-03-04T21:29:58.075Z,82.60
2018-03-04T21:32:26.599Z,82.10
2018-03-04T21:34:54.133Z,82.20
2018-03-04T21:37:22.431Z,82.00
2018-03-04T21:39:50.766Z,82.10
2018-03-04T21:42:18.294Z,82.10
2018-03-04T21:44:46.601Z,82.00
2018-03-04T21:47:14.190Z,82.60
2018-03-04T21:49:41.750Z,81.80
2018-03-04T21:52:09.283Z,82.10
2018-03-04T21:54:37.619Z,82.10
2018-03-04T21:57:05.150Z,82.00
2018-03-04T21:59:33.446Z,81.60
2018-03-04T22:02:01.160Z,81.60
2018-03-04T22:04:28.706Z,81.90
2018-03-04T22:06:56.229Z,82.00
2018-03-04T22:09:23.814Z,82.10
2018-03-04T22:11:51.342Z,82.20
2018-03-04T22:14:18.866Z,82.30
2018-03-04T22:16:47.210Z,83.00
2018-03-04T22:19:14.750Z,83.00
2018-03-04T22:21:42.275Z,83.20
2018-03-04T22:24:09.842Z,83.10
2018-03-04T22:26:37.370Z,83.10
2018-03-04T22:29:04.900Z,83.10
2018-03-04T22:31:33.247Z,82.80
2018-03-04T22:34:00.787Z,82.80
2018-03-04T22:36:28.326Z,83.10
2018-03-04T22:38:56.678Z,82.70
2018-03-04T22:41:24.221Z,83.10
2018-03-04T22:43:51.746Z,83.30
2018-03-04T22:46:19.330Z,83.60
2018-03-04T22:48:46.879Z,83.50
2018-03-04T22:51:14.408Z,82.60
2018-03-04T22:53:41.982Z,83.20
2018-03-04T22:56:09.524Z,83.00
2018-03-04T22:58:37.971Z,83.50
2018-03-04T23:01:05.542Z,83.50
2018-03-04T23:03:33.066Z,83.20
2018-03-04T23:06:01.364Z,83.10
2018-03-04T23:08:28.975Z,83.10
2018-03-04T23:10:56.502Z,83.00
2018-03-04T23:13:24.026Z,82.80
2018-03-04T23:15:51.594Z,82.50
2018-03-04T23:18:19.122Z,82.70
2018-03-04T23:20:46.659Z,82.70
2018-03-04T23:23:14.226Z,82.60
2018-03-04T23:25:42.003Z,82.80
2018-03-04T23:28:09.529Z,82.80
2018-03-04T23:30:37.148Z,82.80
2018-03-04T23:33:04.676Z,82.90
2018-03-04T23:35:32.221Z,83.10
2018-03-04T23:37:59.790Z,83.00
2018-03-04T23:40:27.329Z,83.10
2018-03-04T23:42:54.873Z,83.20
2018-03-04T23:45:22.445Z,82.90
2018-03-04T23:47:49.973Z,82.50
2018-03-04T23:50:17.498Z,82.50
2018-03-04T23:52:45.162Z,82.40
2018-03-04T23:55:12.701Z,82.30
2018-03-04T23:57:40.235Z,82.20
